sensor_id;sensor_type;location;lat;lon;timestamp;temperature;humidity
13880;DHT22;7010;48.200;16.332;2023-03-23T00:02:06;11.10;99.90
13880;DHT22;7010;48.200;16.332;2023-03-23T00:04:34;11.00;99.90
13880;DHT22;7010;48.200;16.332;2023-03-23T00:07:02;11.00;99.90
13880;DHT22;7010;48.200;16.332;2023-03-23T00:09:30;11.10;99.90
13880;DHT22;7010;48.200;16.332;2023-03-23T00:12:00;11.00;99.90
13880;DHT22;7010;48.200;16.332;2023-03-23T00:14:31;11.10;99.90
13880;DHT22;7010;48.200;16.332;2023-03-23T00:17:07;11.10;99.90
13880;DHT22;7010;48.200;16.332;2023-03-23T00:19:36;11.10;99.90
13880;DHT22;7010;48.200;16.332;2023-03-23T00:22:13;11.10;99.90
13880;DHT22;7010;48.200;16.332;2023-03-23T00:24:41;11.10;99.90
13880;DHT22;7010;48.200;16.332;2023-03-23T00:27:08;11.10;99.90
13880;DHT22;7010;48.200;16.332;2023-03-23T00:29:38;11.10;99.90
13880;DHT22;7010;48.200;16.332;2023-03-23T00:32:06;11.10;99.90
13880;DHT22;7010;48.200;16.332;2023-03-23T00:34:38;11.00;99.90
13880;DHT22;7010;48.200;16.332;2023-03-23T00:37:06;11.00;99.90
13880;DHT22;7010;48.200;16.332;2023-03-23T00:39:35;11.00;99.90
13880;DHT22;7010;48.200;16.332;2023-03-23T00:42:04;11.00;99.90
13880;DHT22;7010;48.200;16.332;2023-03-23T00:44:33;11.00;99.90
13880;DHT22;7010;48.200;16.332;2023-03-23T00:47:01;10.90;99.90
13880;DHT22;7010;48.200;16.332;2023-03-23T00:49:28;11.00;99.90
13880;DHT22;7010;48.200;16.332;2023-03-23T00:51:57;11.00;99.90
13880;DHT22;7010;48.200;16.332;2023-03-23T00:54:25;11.00;99.90
13880;DHT22;7010;48.200;16.332;2023-03-23T00:56:54;11.00;99.90
13880;DHT22;7010;48.200;16.332;2023-03-23T00:59:21;10.90;99.90
13880;DHT22;7010;48.200;16.332;2023-03-23T01:01:49;10.90;99.90
13880;DHT22;7010;48.200;16.332;2023-03-23T01:04:17;10.90;99.90
13880;DHT22;7010;48.200;16.332;2023-03-23T01:06:49;10.80;99.90
13880;DHT22;7010;48.200;16.332;2023-03-23T01:09:18;10.80;99.90
13880;DHT22;7010;48.200;16.332;2023-03-23T01:11:47;10.70;99.90
13880;DHT22;7010;48.200;16.332;2023-03-23T01:14:18;10.70;99.90
13880;DHT22;7010;48.200;16.332;2023-03-23T01:16:45;10.70;99.90
13880;DHT22;7010;48.200;16.332;2023-03-23T01:19:13;10.60;99.90
13880;DHT22;7010;48.200;16.332;2023-03-23T01:21:41;10.60;99.90
13880;DHT22;7010;48.200;16.332;2023-03-23T01:24:08;10.60;99.90
13880;DHT22;7010;48.200;16.332;2023-03-23T01:26:35;10.70;99.90
13880;DHT22;7010;48.200;16.332;2023-03-23T01:29:03;10.60;99.90
13880;DHT22;7010;48.200;16.332;2023-03-23T01:31:31;10.60;99.90
13880;DHT22;7010;48.200;16.332;2023-03-23T01:34:00;10.60;99.90
13880;DHT22;7010;48.200;16.332;2023-03-23T01:36:28;10.60;99.90
13880;DHT22;7010;48.200;16.332;2023-03-23T01:38:59;10.60;99.90
13880;DHT22;7010;48.200;16.332;2023-03-23T01:41:26;10.50;99.90
13880;DHT22;7010;48.200;16.332;2023-03-23T01:43:59;10.50;99.90
13880;DHT22;7010;48.200;16.332;2023-03-23T01:46:28;10.50;99.90
13880;DHT22;7010;48.200;16.332;2023-03-23T01:49:00;10.40;99.90
13880;DHT22;7010;48.200;16.332;2023-03-23T01:51:32;10.40;99.90
13880;DHT22;7010;48.200;16.332;2023-03-23T01:54:04;10.30;99.90
13880;DHT22;7010;48.200;16.332;2023-03-23T01:56:36;10.20;99.90
13880;DHT22;7010;48.200;16.332;2023-03-23T01:59:07;10.20;99.90
13880;DHT22;7010;48.200;16.332;2023-03-23T02:01:35;10.20;99.90
13880;DHT22;7010;48.200;16.332;2023-03-23T02:04:10;10.20;99.90
13880;DHT22;7010;48.200;16.332;2023-03-23T02:06:38;10.20;99.90
13880;DHT22;7010;48.200;16.332;2023-03-23T02:09:06;10.20;99.90
13880;DHT22;7010;48.200;16.332;2023-03-23T02:11:33;10.10;99.90
13880;DHT22;7010;48.200;16.332;2023-03-23T02:14:00;10.10;99.90
13880;DHT22;7010;48.200;16.332;2023-03-23T02:16:33;10.10;99.90
13880;DHT22;7010;48.200;16.332;2023-03-23T02:19:17;10.10;99.90
13880;DHT22;7010;48.200;16.332;2023-03-23T02:24:57;10.10;99.90
13880;DHT22;7010;48.200;16.332;2023-03-23T02:27:46;10.10;99.90
13880;DHT22;7010;48.200;16.332;2023-03-23T02:30:32;10.00;99.90
13880;DHT22;7010;48.200;16.332;2023-03-23T02:36:02;10.00;99.90
13880;DHT22;7010;48.200;16.332;2023-03-23T02:38:34;10.00;99.90
13880;DHT22;7010;48.200;16.332;2023-03-23T02:41:03;9.90;99.90
13880;DHT22;7010;48.200;16.332;2023-03-23T02:43:33;9.90;99.90
13880;DHT22;7010;48.200;16.332;2023-03-23T02:46:05;9.80;99.90
13880;DHT22;7010;48.200;16.332;2023-03-23T02:48:37;9.80;99.90
13880;DHT22;7010;48.200;16.332;2023-03-23T02:51:06;9.80;99.90
13880;DHT22;7010;48.200;16.332;2023-03-23T02:53:37;9.80;99.90
13880;DHT22;7010;48.200;16.332;2023-03-23T02:56:07;9.80;99.90
13880;DHT22;7010;48.200;16.332;2023-03-23T02:58:36;9.80;99.90
13880;DHT22;7010;48.200;16.332;2023-03-23T03:04:11;9.80;99.90
13880;DHT22;7010;48.200;16.332;2023-03-23T03:06:46;9.80;99.90
13880;DHT22;7010;48.200;16.332;2023-03-23T03:09:22;9.70;99.90
13880;DHT22;7010;48.200;16.332;2023-03-23T03:11:57;9.70;99.90
13880;DHT22;7010;48.200;16.332;2023-03-23T03:14:29;9.60;99.90
13880;DHT22;7010;48.200;16.332;2023-03-23T03:17:06;9.60;99.90
13880;DHT22;7010;48.200;16.332;2023-03-23T03:19:39;9.60;99.90
13880;DHT22;7010;48.200;16.332;2023-03-23T03:22:08;9.50;99.90
13880;DHT22;7010;48.200;16.332;2023-03-23T03:24:37;9.50;99.90
13880;DHT22;7010;48.200;16.332;2023-03-23T03:27:11;9.50;99.90
13880;DHT22;7010;48.200;16.332;2023-03-23T03:29:41;9.40;99.90
13880;DHT22;7010;48.200;16.332;2023-03-23T03:32:12;9.50;99.90
13880;DHT22;7010;48.200;16.332;2023-03-23T03:34:41;9.40;99.90
13880;DHT22;7010;48.200;16.332;2023-03-23T03:37:08;9.40;99.90
13880;DHT22;7010;48.200;16.332;2023-03-23T03:39:37;9.40;99.90
13880;DHT22;7010;48.200;16.332;2023-03-23T03:42:05;9.50;99.90
13880;DHT22;7010;48.200;16.332;2023-03-23T03:44:36;9.50;99.90
13880;DHT22;7010;48.200;16.332;2023-03-23T03:47:03;9.50;99.90
13880;DHT22;7010;48.200;16.332;2023-03-23T03:49:30;9.50;99.90
13880;DHT22;7010;48.200;16.332;2023-03-23T03:51:58;9.50;99.90
13880;DHT22;7010;48.200;16.332;2023-03-23T03:54:25;9.50;99.90
13880;DHT22;7010;48.200;16.332;2023-03-23T03:56:53;9.40;99.90
13880;DHT22;7010;48.200;16.332;2023-03-23T03:59:23;9.40;99.90
13880;DHT22;7010;48.200;16.332;2023-03-23T04:01:53;9.40;99.90
13880;DHT22;7010;48.200;16.332;2023-03-23T04:04:20;9.40;99.90
13880;DHT22;7010;48.200;16.332;2023-03-23T04:06:48;9.40;99.90
13880;DHT22;7010;48.200;16.332;2023-03-23T04:09:17;9.40;99.90
13880;DHT22;7010;48.200;16.332;2023-03-23T04:11:45;9.40;99.90
13880;DHT22;7010;48.200;16.332;2023-03-23T04:14:12;9.40;99.90
13880;DHT22;7010;48.200;16.332;2023-03-23T04:16:39;9.40;99.90
13880;DHT22;7010;48.200;16.332;2023-03-23T04:19:09;9.40;99.90
13880;DHT22;7010;48.200;16.332;2023-03-23T04:21:38;9.40;99.90
13880;DHT22;7010;48.200;16.332;2023-03-23T04:24:06;9.40;99.90
13880;DHT22;7010;48.200;16.332;2023-03-23T04:26:35;9.30;99.90
13880;DHT22;7010;48.200;16.332;2023-03-23T04:29:02;9.30;99.90
13880;DHT22;7010;48.200;16.332;2023-03-23T04:31:31;9.30;99.90
13880;DHT22;7010;48.200;16.332;2023-03-23T04:34:00;9.30;99.90
13880;DHT22;7010;48.200;16.332;2023-03-23T04:36:27;9.30;99.90
13880;DHT22;7010;48.200;16.332;2023-03-23T04:38:55;9.30;99.90
13880;DHT22;7010;48.200;16.332;2023-03-23T04:41:23;9.30;99.90
13880;DHT22;7010;48.200;16.332;2023-03-23T04:43:52;9.30;99.90
13880;DHT22;7010;48.200;16.332;2023-03-23T04:46:20;9.20;99.90
13880;DHT22;7010;48.200;16.332;2023-03-23T04:48:47;9.20;99.90
13880;DHT22;7010;48.200;16.332;2023-03-23T04:51:15;9.20;99.90
13880;DHT22;7010;48.200;16.332;2023-03-23T04:53:42;9.20;99.90
13880;DHT22;7010;48.200;16.332;2023-03-23T04:56:09;9.20;99.90
13880;DHT22;7010;48.200;16.332;2023-03-23T04:58:39;9.20;99.90
13880;DHT22;7010;48.200;16.332;2023-03-23T05:01:07;9.20;99.90
13880;DHT22;7010;48.200;16.332;2023-03-23T05:03:35;9.20;99.90
13880;DHT22;7010;48.200;16.332;2023-03-23T05:06:02;9.20;99.90
13880;DHT22;7010;48.200;16.332;2023-03-23T05:08:29;9.10;99.90
13880;DHT22;7010;48.200;16.332;2023-03-23T05:11:00;9.10;99.90
13880;DHT22;7010;48.200;16.332;2023-03-23T05:13:28;9.10;99.90
13880;DHT22;7010;48.200;16.332;2023-03-23T05:15:55;9.10;99.90
13880;DHT22;7010;48.200;16.332;2023-03-23T05:18:24;9.20;99.90
13880;DHT22;7010;48.200;16.332;2023-03-23T05:20:51;9.20;99.90
13880;DHT22;7010;48.200;16.332;2023-03-23T05:23:19;9.20;99.90
13880;DHT22;7010;48.200;16.332;2023-03-23T05:25:53;9.20;99.90
13880;DHT22;7010;48.200;16.332;2023-03-23T05:28:20;9.20;99.90
13880;DHT22;7010;48.200;16.332;2023-03-23T05:30:48;9.20;99.90
13880;DHT22;7010;48.200;16.332;2023-03-23T05:33:15;9.20;99.90
13880;DHT22;7010;48.200;16.332;2023-03-23T05:35:45;9.20;99.90
13880;DHT22;7010;48.200;16.332;2023-03-23T05:38:14;9.30;99.90
13880;DHT22;7010;48.200;16.332;2023-03-23T05:40:41;9.30;99.90
13880;DHT22;7010;48.200;16.332;2023-03-23T05:43:09;9.30;99.90
13880;DHT22;7010;48.200;16.332;2023-03-23T05:45:37;9.30;99.90
13880;DHT22;7010;48.200;16.332;2023-03-23T05:48:04;9.30;99.90
13880;DHT22;7010;48.200;16.332;2023-03-23T05:50:31;9.30;99.90
13880;DHT22;7010;48.200;16.332;2023-03-23T05:53:00;9.40;99.90
13880;DHT22;7010;48.200;16.332;2023-03-23T05:55:29;9.40;99.90
13880;DHT22;7010;48.200;16.332;2023-03-23T05:57:58;9.40;99.90
13880;DHT22;7010;48.200;16.332;2023-03-23T06:00:25;9.50;99.90
13880;DHT22;7010;48.200;16.332;2023-03-23T06:02:55;9.50;99.90
13880;DHT22;7010;48.200;16.332;2023-03-23T06:05:23;9.60;99.90
13880;DHT22;7010;48.200;16.332;2023-03-23T06:07:51;9.60;99.90
13880;DHT22;7010;48.200;16.332;2023-03-23T06:10:21;9.70;99.90
13880;DHT22;7010;48.200;16.332;2023-03-23T06:12:49;9.70;99.90
13880;DHT22;7010;48.200;16.332;2023-03-23T06:15:17;9.70;99.90
13880;DHT22;7010;48.200;16.332;2023-03-23T06:17:45;9.70;99.90
13880;DHT22;7010;48.200;16.332;2023-03-23T06:20:13;9.80;99.90
13880;DHT22;7010;48.200;16.332;2023-03-23T06:22:40;9.80;99.90
13880;DHT22;7010;48.200;16.332;2023-03-23T06:25:09;9.90;99.90
13880;DHT22;7010;48.200;16.332;2023-03-23T06:27:39;9.90;99.90
13880;DHT22;7010;48.200;16.332;2023-03-23T06:30:08;9.90;99.90
13880;DHT22;7010;48.200;16.332;2023-03-23T06:32:35;10.00;99.90
13880;DHT22;7010;48.200;16.332;2023-03-23T06:35:03;10.00;99.90
13880;DHT22;7010;48.200;16.332;2023-03-23T06:37:30;10.00;99.90
13880;DHT22;7010;48.200;16.332;2023-03-23T06:39:57;10.00;99.90
13880;DHT22;7010;48.200;16.332;2023-03-23T06:42:24;10.10;99.90
13880;DHT22;7010;48.200;16.332;2023-03-23T06:44:53;10.10;99.90
13880;DHT22;7010;48.200;16.332;2023-03-23T06:47:22;10.20;99.90
13880;DHT22;7010;48.200;16.332;2023-03-23T06:49:50;10.30;99.90
13880;DHT22;7010;48.200;16.332;2023-03-23T06:52:17;10.30;99.90
13880;DHT22;7010;48.200;16.332;2023-03-23T06:54:44;10.40;99.90
13880;DHT22;7010;48.200;16.332;2023-03-23T06:57:11;10.60;99.90
13880;DHT22;7010;48.200;16.332;2023-03-23T06:59:38;10.70;99.90
13880;DHT22;7010;48.200;16.332;2023-03-23T07:02:08;10.80;99.90
13880;DHT22;7010;48.200;16.332;2023-03-23T07:04:35;10.90;99.90
13880;DHT22;7010;48.200;16.332;2023-03-23T07:07:03;11.00;99.90
13880;DHT22;7010;48.200;16.332;2023-03-23T07:09:30;11.10;99.90
13880;DHT22;7010;48.200;16.332;2023-03-23T07:11:57;11.20;99.90
13880;DHT22;7010;48.200;16.332;2023-03-23T07:14:25;11.30;99.90
13880;DHT22;7010;48.200;16.332;2023-03-23T07:16:52;11.40;99.90
13880;DHT22;7010;48.200;16.332;2023-03-23T07:19:21;11.40;99.90
13880;DHT22;7010;48.200;16.332;2023-03-23T07:21:48;11.50;99.90
13880;DHT22;7010;48.200;16.332;2023-03-23T07:24:15;11.60;99.90
13880;DHT22;7010;48.200;16.332;2023-03-23T07:26:44;11.60;99.90
13880;DHT22;7010;48.200;16.332;2023-03-23T07:29:11;11.70;99.90
13880;DHT22;7010;48.200;16.332;2023-03-23T07:31:38;11.70;99.90
13880;DHT22;7010;48.200;16.332;2023-03-23T07:34:05;11.80;99.90
13880;DHT22;7010;48.200;16.332;2023-03-23T07:36:34;11.90;99.90
13880;DHT22;7010;48.200;16.332;2023-03-23T07:39:03;11.90;99.90
13880;DHT22;7010;48.200;16.332;2023-03-23T07:41:32;12.00;99.90
13880;DHT22;7010;48.200;16.332;2023-03-23T07:43:59;12.10;99.90
13880;DHT22;7010;48.200;16.332;2023-03-23T07:46:26;12.30;99.90
13880;DHT22;7010;48.200;16.332;2023-03-23T07:48:53;12.40;99.90
13880;DHT22;7010;48.200;16.332;2023-03-23T07:51:21;12.40;99.90
13880;DHT22;7010;48.200;16.332;2023-03-23T07:53:50;12.60;99.90
13880;DHT22;7010;48.200;16.332;2023-03-23T07:56:17;12.70;99.90
13880;DHT22;7010;48.200;16.332;2023-03-23T07:58:46;12.80;99.90
13880;DHT22;7010;48.200;16.332;2023-03-23T08:01:13;12.90;99.90
13880;DHT22;7010;48.200;16.332;2023-03-23T08:03:41;13.00;99.90
13880;DHT22;7010;48.200;16.332;2023-03-23T08:06:08;13.10;99.90
13880;DHT22;7010;48.200;16.332;2023-03-23T08:08:36;13.10;99.90
13880;DHT22;7010;48.200;16.332;2023-03-23T08:11:05;13.20;99.90
13880;DHT22;7010;48.200;16.332;2023-03-23T08:13:32;13.30;99.90
13880;DHT22;7010;48.200;16.332;2023-03-23T08:16:01;13.40;99.90
13880;DHT22;7010;48.200;16.332;2023-03-23T08:18:29;13.50;99.90
13880;DHT22;7010;48.200;16.332;2023-03-23T08:20:57;13.60;99.90
13880;DHT22;7010;48.200;16.332;2023-03-23T08:23:25;13.80;99.90
13880;DHT22;7010;48.200;16.332;2023-03-23T08:25:52;13.80;99.90
13880;DHT22;7010;48.200;16.332;2023-03-23T08:28:20;13.80;99.90
13880;DHT22;7010;48.200;16.332;2023-03-23T08:30:48;13.80;99.90
13880;DHT22;7010;48.200;16.332;2023-03-23T08:33:16;13.80;99.90
13880;DHT22;7010;48.200;16.332;2023-03-23T08:35:43;13.80;99.90
13880;DHT22;7010;48.200;16.332;2023-03-23T08:38:11;14.00;99.90
13880;DHT22;7010;48.200;16.332;2023-03-23T08:40:38;14.00;99.90
13880;DHT22;7010;48.200;16.332;2023-03-23T08:43:06;14.00;99.90
13880;DHT22;7010;48.200;16.332;2023-03-23T08:45:34;14.00;99.90
13880;DHT22;7010;48.200;16.332;2023-03-23T08:48:02;14.20;99.90
13880;DHT22;7010;48.200;16.332;2023-03-23T08:50:29;14.30;99.90
13880;DHT22;7010;48.200;16.332;2023-03-23T08:52:57;14.60;99.90
13880;DHT22;7010;48.200;16.332;2023-03-23T08:55:25;15.10;99.90
13880;DHT22;7010;48.200;16.332;2023-03-23T08:57:52;15.70;99.90
13880;DHT22;7010;48.200;16.332;2023-03-23T09:00:21;16.50;99.90
13880;DHT22;7010;48.200;16.332;2023-03-23T09:02:52;17.20;99.90
13880;DHT22;7010;48.200;16.332;2023-03-23T09:05:20;18.10;99.90
13880;DHT22;7010;48.200;16.332;2023-03-23T09:07:51;19.20;99.90
13880;DHT22;7010;48.200;16.332;2023-03-23T09:10:18;20.00;99.90
13880;DHT22;7010;48.200;16.332;2023-03-23T09:12:45;20.50;99.40
13880;DHT22;7010;48.200;16.332;2023-03-23T09:15:13;21.20;98.70
13880;DHT22;7010;48.200;16.332;2023-03-23T09:17:41;21.80;96.60
13880;DHT22;7010;48.200;16.332;2023-03-23T09:20:10;22.30;94.90
13880;DHT22;7010;48.200;16.332;2023-03-23T09:22:38;22.70;94.50
13880;DHT22;7010;48.200;16.332;2023-03-23T09:25:06;23.10;92.70
13880;DHT22;7010;48.200;16.332;2023-03-23T09:27:33;23.70;91.60
13880;DHT22;7010;48.200;16.332;2023-03-23T09:30:02;24.40;90.10
13880;DHT22;7010;48.200;16.332;2023-03-23T09:32:32;25.00;87.80
13880;DHT22;7010;48.200;16.332;2023-03-23T09:34:59;25.30;84.10
13880;DHT22;7010;48.200;16.332;2023-03-23T09:37:28;24.80;82.90
13880;DHT22;7010;48.200;16.332;2023-03-23T09:39:55;25.00;81.20
13880;DHT22;7010;48.200;16.332;2023-03-23T09:42:30;24.90;81.20
13880;DHT22;7010;48.200;16.332;2023-03-23T09:45:02;24.80;80.60
13880;DHT22;7010;48.200;16.332;2023-03-23T09:47:34;24.30;82.00
13880;DHT22;7010;48.200;16.332;2023-03-23T09:50:03;24.20;80.90
13880;DHT22;7010;48.200;16.332;2023-03-23T09:52:35;24.70;79.90
13880;DHT22;7010;48.200;16.332;2023-03-23T09:55:04;24.90;79.20
13880;DHT22;7010;48.200;16.332;2023-03-23T09:57:32;24.80;78.40
13880;DHT22;7010;48.200;16.332;2023-03-23T10:00:03;25.30;78.40
13880;DHT22;7010;48.200;16.332;2023-03-23T10:02:33;25.40;77.00
13880;DHT22;7010;48.200;16.332;2023-03-23T10:05:06;25.50;78.10
13880;DHT22;7010;48.200;16.332;2023-03-23T10:07:40;25.80;76.40
13880;DHT22;7010;48.200;16.332;2023-03-23T10:10:08;25.70;74.90
13880;DHT22;7010;48.200;16.332;2023-03-23T10:12:40;25.10;74.70
13880;DHT22;7010;48.200;16.332;2023-03-23T10:15:16;24.50;74.80
13880;DHT22;7010;48.200;16.332;2023-03-23T10:17:45;24.50;75.90
13880;DHT22;7010;48.200;16.332;2023-03-23T10:20:17;24.50;74.10
13880;DHT22;7010;48.200;16.332;2023-03-23T10:22:47;24.30;75.30
13880;DHT22;7010;48.200;16.332;2023-03-23T10:25:18;23.90;75.90
13880;DHT22;7010;48.200;16.332;2023-03-23T10:27:48;23.70;76.90
13880;DHT22;7010;48.200;16.332;2023-03-23T10:30:17;23.80;78.10
13880;DHT22;7010;48.200;16.332;2023-03-23T10:32:47;24.20;76.30
13880;DHT22;7010;48.200;16.332;2023-03-23T10:35:17;24.20;76.40
13880;DHT22;7010;48.200;16.332;2023-03-23T10:37:47;24.20;76.40
13880;DHT22;7010;48.200;16.332;2023-03-23T10:40:16;24.30;75.60
13880;DHT22;7010;48.200;16.332;2023-03-23T10:42:44;24.30;75.90
13880;DHT22;7010;48.200;16.332;2023-03-23T10:45:13;24.30;76.70
13880;DHT22;7010;48.200;16.332;2023-03-23T10:47:43;24.50;75.80
13880;DHT22;7010;48.200;16.332;2023-03-23T10:50:12;24.60;76.10
13880;DHT22;7010;48.200;16.332;2023-03-23T10:52:41;24.80;76.40
13880;DHT22;7010;48.200;16.332;2023-03-23T10:55:10;24.90;76.40
13880;DHT22;7010;48.200;16.332;2023-03-23T10:57:39;25.20;75.80
13880;DHT22;7010;48.200;16.332;2023-03-23T11:00:07;25.00;74.70
13880;DHT22;7010;48.200;16.332;2023-03-23T11:02:39;25.10;74.10
13880;DHT22;7010;48.200;16.332;2023-03-23T11:05:13;25.20;74.30
13880;DHT22;7010;48.200;16.332;2023-03-23T11:07:41;25.10;74.00
13880;DHT22;7010;48.200;16.332;2023-03-23T11:10:19;25.50;73.50
13880;DHT22;7010;48.200;16.332;2023-03-23T11:12:47;25.50;74.50
13880;DHT22;7010;48.200;16.332;2023-03-23T11:18:06;25.80;71.60
13880;DHT22;7010;48.200;16.332;2023-03-23T11:20:35;25.70;72.40
13880;DHT22;7010;48.200;16.332;2023-03-23T11:23:07;26.00;73.10
13880;DHT22;7010;48.200;16.332;2023-03-23T11:25:39;26.20;72.80
13880;DHT22;7010;48.200;16.332;2023-03-23T11:28:14;26.70;72.20
13880;DHT22;7010;48.200;16.332;2023-03-23T11:30:41;27.20;69.80
13880;DHT22;7010;48.200;16.332;2023-03-23T11:33:08;27.40;68.90
13880;DHT22;7010;48.200;16.332;2023-03-23T11:35:35;27.50;67.30
13880;DHT22;7010;48.200;16.332;2023-03-23T11:38:01;27.00;66.70
13880;DHT22;7010;48.200;16.332;2023-03-23T11:40:31;26.60;66.20
13880;DHT22;7010;48.200;16.332;2023-03-23T11:43:08;26.30;66.40
13880;DHT22;7010;48.200;16.332;2023-03-23T11:45:35;25.70;67.40
13880;DHT22;7010;48.200;16.332;2023-03-23T11:48:06;25.40;68.80
13880;DHT22;7010;48.200;16.332;2023-03-23T11:50:35;25.10;69.10
13880;DHT22;7010;48.200;16.332;2023-03-23T11:53:13;24.80;68.90
13880;DHT22;7010;48.200;16.332;2023-03-23T11:55:50;24.80;69.40
13880;DHT22;7010;48.200;16.332;2023-03-23T11:58:22;24.70;69.30
13880;DHT22;7010;48.200;16.332;2023-03-23T12:00:49;24.30;68.90
13880;DHT22;7010;48.200;16.332;2023-03-23T12:03:32;23.90;69.30
13880;DHT22;7010;48.200;16.332;2023-03-23T12:06:06;23.80;70.90
13880;DHT22;7010;48.200;16.332;2023-03-23T12:08:38;23.70;70.30
13880;DHT22;7010;48.200;16.332;2023-03-23T12:11:12;23.50;70.80
13880;DHT22;7010;48.200;16.332;2023-03-23T12:13:46;23.40;70.80
13880;DHT22;7010;48.200;16.332;2023-03-23T12:16:23;23.30;71.50
13880;DHT22;7010;48.200;16.332;2023-03-23T12:18:55;23.30;72.10
13880;DHT22;7010;48.200;16.332;2023-03-23T12:21:27;23.30;73.20
13880;DHT22;7010;48.200;16.332;2023-03-23T12:23:59;23.30;72.40
13880;DHT22;7010;48.200;16.332;2023-03-23T12:26:30;23.30;73.40
13880;DHT22;7010;48.200;16.332;2023-03-23T12:31:46;23.40;73.30
13880;DHT22;7010;48.200;16.332;2023-03-23T12:34:17;23.50;71.90
13880;DHT22;7010;48.200;16.332;2023-03-23T12:36:50;23.60;72.10
13880;DHT22;7010;48.200;16.332;2023-03-23T12:42:12;24.10;72.50
13880;DHT22;7010;48.200;16.332;2023-03-23T12:44:43;24.40;71.80
13880;DHT22;7010;48.200;16.332;2023-03-23T12:47:16;24.60;71.20
13880;DHT22;7010;48.200;16.332;2023-03-23T12:49:46;24.20;71.00
13880;DHT22;7010;48.200;16.332;2023-03-23T12:52:16;23.80;71.20
13880;DHT22;7010;48.200;16.332;2023-03-23T12:54:47;23.60;71.90
13880;DHT22;7010;48.200;16.332;2023-03-23T12:57:18;23.50;71.50
13880;DHT22;7010;48.200;16.332;2023-03-23T12:59:49;23.60;71.60
13880;DHT22;7010;48.200;16.332;2023-03-23T13:02:19;23.90;72.10
13880;DHT22;7010;48.200;16.332;2023-03-23T13:04:47;24.30;71.60
13880;DHT22;7010;48.200;16.332;2023-03-23T13:07:18;24.70;71.20
13880;DHT22;7010;48.200;16.332;2023-03-23T13:09:48;25.00;70.50
13880;DHT22;7010;48.200;16.332;2023-03-23T13:12:17;25.40;70.60
13880;DHT22;7010;48.200;16.332;2023-03-23T13:14:46;25.70;70.80
13880;DHT22;7010;48.200;16.332;2023-03-23T13:17:20;26.10;70.00
13880;DHT22;7010;48.200;16.332;2023-03-23T13:22:39;26.30;69.30
13880;DHT22;7010;48.200;16.332;2023-03-23T13:25:13;26.30;69.10
13880;DHT22;7010;48.200;16.332;2023-03-23T13:27:40;26.00;67.80
13880;DHT22;7010;48.200;16.332;2023-03-23T13:30:16;26.20;68.30
13880;DHT22;7010;48.200;16.332;2023-03-23T13:32:51;26.10;67.40
13880;DHT22;7010;48.200;16.332;2023-03-23T13:35:18;26.20;68.20
13880;DHT22;7010;48.200;16.332;2023-03-23T13:37:47;26.20;68.20
13880;DHT22;7010;48.200;16.332;2023-03-23T13:40:18;26.20;68.00
13880;DHT22;7010;48.200;16.332;2023-03-23T13:42:48;26.20;67.70
13880;DHT22;7010;48.200;16.332;2023-03-23T13:45:19;26.20;67.50
13880;DHT22;7010;48.200;16.332;2023-03-23T13:47:48;26.10;67.60
13880;DHT22;7010;48.200;16.332;2023-03-23T13:50:26;26.20;66.50
13880;DHT22;7010;48.200;16.332;2023-03-23T13:52:56;25.70;66.30
13880;DHT22;7010;48.200;16.332;2023-03-23T13:55:30;25.10;66.80
13880;DHT22;7010;48.200;16.332;2023-03-23T13:57:57;24.80;67.50
13880;DHT22;7010;48.200;16.332;2023-03-23T14:00:31;24.90;68.30
13880;DHT22;7010;48.200;16.332;2023-03-23T14:03:00;25.10;67.10
13880;DHT22;7010;48.200;16.332;2023-03-23T14:05:36;25.40;67.10
13880;DHT22;7010;48.200;16.332;2023-03-23T14:08:10;25.60;66.70
13880;DHT22;7010;48.200;16.332;2023-03-23T14:10:38;25.70;66.30
13880;DHT22;7010;48.200;16.332;2023-03-23T14:13:06;25.80;66.90
13880;DHT22;7010;48.200;16.332;2023-03-23T14:15:40;25.70;66.50
13880;DHT22;7010;48.200;16.332;2023-03-23T14:18:11;25.60;66.20
13880;DHT22;7010;48.200;16.332;2023-03-23T14:20:40;25.50;66.70
13880;DHT22;7010;48.200;16.332;2023-03-23T14:23:12;25.60;67.60
13880;DHT22;7010;48.200;16.332;2023-03-23T14:25:41;25.40;66.50
13880;DHT22;7010;48.200;16.332;2023-03-23T14:28:15;25.30;66.00
13880;DHT22;7010;48.200;16.332;2023-03-23T14:30:42;25.10;66.30
13880;DHT22;7010;48.200;16.332;2023-03-23T14:33:10;24.80;66.80
13880;DHT22;7010;48.200;16.332;2023-03-23T14:35:40;24.70;67.10
13880;DHT22;7010;48.200;16.332;2023-03-23T14:40:37;24.50;67.30
13880;DHT22;7010;48.200;16.332;2023-03-23T14:43:03;24.30;67.80
13880;DHT22;7010;48.200;16.332;2023-03-23T14:45:31;24.00;67.80
13880;DHT22;7010;48.200;16.332;2023-03-23T14:48:00;24.00;68.00
13880;DHT22;7010;48.200;16.332;2023-03-23T14:50:28;23.80;67.70
13880;DHT22;7010;48.200;16.332;2023-03-23T14:53:02;23.80;67.30
13880;DHT22;7010;48.200;16.332;2023-03-23T14:55:30;23.70;67.50
13880;DHT22;7010;48.200;16.332;2023-03-23T14:58:05;23.80;66.30
13880;DHT22;7010;48.200;16.332;2023-03-23T15:00:33;23.80;64.70
13880;DHT22;7010;48.200;16.332;2023-03-23T15:03:00;23.70;64.20
13880;DHT22;7010;48.200;16.332;2023-03-23T15:05:28;23.60;64.20
13880;DHT22;7010;48.200;16.332;2023-03-23T15:08:00;23.60;65.20
13880;DHT22;7010;48.200;16.332;2023-03-23T15:10:30;23.60;65.40
13880;DHT22;7010;48.200;16.332;2023-03-23T15:12:57;23.50;65.00
13880;DHT22;7010;48.200;16.332;2023-03-23T15:15:26;23.40;64.80
13880;DHT22;7010;48.200;16.332;2023-03-23T15:17:53;23.00;64.30
13880;DHT22;7010;48.200;16.332;2023-03-23T15:20:21;22.90;64.60
13880;DHT22;7010;48.200;16.332;2023-03-23T15:22:48;23.00;65.00
13880;DHT22;7010;48.200;16.332;2023-03-23T15:25:18;22.90;65.20
13880;DHT22;7010;48.200;16.332;2023-03-23T15:27:50;22.80;65.60
13880;DHT22;7010;48.200;16.332;2023-03-23T15:30:27;22.70;65.80
13880;DHT22;7010;48.200;16.332;2023-03-23T15:32:59;22.80;66.10
13880;DHT22;7010;48.200;16.332;2023-03-23T15:35:32;22.70;67.40
13880;DHT22;7010;48.200;16.332;2023-03-23T15:38:00;22.60;67.50
13880;DHT22;7010;48.200;16.332;2023-03-23T15:40:33;22.30;67.10
13880;DHT22;7010;48.200;16.332;2023-03-23T15:43:16;22.20;67.40
13880;DHT22;7010;48.200;16.332;2023-03-23T15:45:52;22.20;67.70
13880;DHT22;7010;48.200;16.332;2023-03-23T15:48:19;22.00;68.00
13880;DHT22;7010;48.200;16.332;2023-03-23T15:50:46;21.90;67.20
13880;DHT22;7010;48.200;16.332;2023-03-23T15:53:23;21.90;67.10
13880;DHT22;7010;48.200;16.332;2023-03-23T15:55:52;21.90;67.10
13880;DHT22;7010;48.200;16.332;2023-03-23T15:58:20;21.80;67.80
13880;DHT22;7010;48.200;16.332;2023-03-23T16:00:49;21.70;68.70
13880;DHT22;7010;48.200;16.332;2023-03-23T16:03:18;21.60;69.20
13880;DHT22;7010;48.200;16.332;2023-03-23T16:05:48;21.50;70.10
13880;DHT22;7010;48.200;16.332;2023-03-23T16:08:16;21.40;70.40
13880;DHT22;7010;48.200;16.332;2023-03-23T16:10:44;21.30;70.60
13880;DHT22;7010;48.200;16.332;2023-03-23T16:13:12;21.40;71.00